sensor_id;sensor_type;location;lat;lon;timestamp;pressure;altitude;pressure_sealevel;temperature;humidity
77685;BME280;66844;46.092;18.268;2023-02-23T00:00:21;99212.03;;;8.37;69.15
77685;BME280;66844;46.092;18.268;2023-02-23T00:00:58;99211.06;;;8.38;69.38
77685;BME280;66844;46.092;18.268;2023-02-23T00:01:30;99210.16;;;8.39;68.98
77685;BME280;66844;46.092;18.268;2023-02-23T00:02:02;99217.22;;;8.38;69.72
77685;BME280;66844;46.092;18.268;2023-02-23T00:02:36;99209.38;;;8.37;69.56
77685;BME280;66844;46.092;18.268;2023-02-23T00:03:09;99212.97;;;8.36;69.21
77685;BME280;66844;46.092;18.268;2023-02-23T00:03:41;99209.44;;;8.35;69.55
77685;BME280;66844;46.092;18.268;2023-02-23T00:04:13;99211.19;;;8.36;69.35
77685;BME280;66844;46.092;18.268;2023-02-23T00:04:45;99216.47;;;8.36;69.30
77685;BME280;66844;46.092;18.268;2023-02-23T00:05:18;99204.94;;;8.37;69.09
77685;BME280;66844;46.092;18.268;2023-02-23T00:05:50;99212.03;;;8.37;69.85
77685;BME280;66844;46.092;18.268;2023-02-23T00:06:24;99209.38;;;8.37;69.86
77685;BME280;66844;46.092;18.268;2023-02-23T00:06:56;99213.81;;;8.36;69.72
77685;BME280;66844;46.092;18.268;2023-02-23T00:07:28;99209.56;;;8.34;69.46
77685;BME280;66844;46.092;18.268;2023-02-23T00:08:00;99215.78;;;8.33;69.32
77685;BME280;66844;46.092;18.268;2023-02-23T00:08:32;99206.03;;;8.33;69.64
77685;BME280;66844;46.092;18.268;2023-02-23T00:09:06;99218.59;;;8.30;69.72
77685;BME280;66844;46.092;18.268;2023-02-23T00:09:46;99209.81;;;8.27;69.61
77685;BME280;66844;46.092;18.268;2023-02-23T00:10:18;99222.19;;;8.28;69.39
77685;BME280;66844;46.092;18.268;2023-02-23T00:10:52;99222.09;;;8.30;69.66
77685;BME280;66844;46.092;18.268;2023-02-23T00:11:29;99215.94;;;8.30;69.91
77685;BME280;66844;46.092;18.268;2023-02-23T00:12:03;99212.56;;;8.26;69.58
77685;BME280;66844;46.092;18.268;2023-02-23T00:12:41;99214.13;;;8.30;70.10
77685;BME280;66844;46.092;18.268;2023-02-23T00:13:13;99218.59;;;8.30;69.51
77685;BME280;66844;46.092;18.268;2023-02-23T00:13:47;99212.56;;;8.26;69.74
77685;BME280;66844;46.092;18.268;2023-02-23T00:14:23;99216.91;;;8.27;70.14
77685;BME280;66844;46.092;18.268;2023-02-23T00:14:57;99216.22;;;8.23;69.54
77685;BME280;66844;46.092;18.268;2023-02-23T00:15:30;99219.56;;;8.27;69.53
77685;BME280;66844;46.092;18.268;2023-02-23T00:16:07;99215.28;;;8.24;70.00
77685;BME280;66844;46.092;18.268;2023-02-23T00:16:39;99215.47;;;8.21;70.12
77685;BME280;66844;46.092;18.268;2023-02-23T00:17:15;99216.44;;;8.19;69.98
77685;BME280;66844;46.092;18.268;2023-02-23T00:17:48;99205.03;;;8.18;70.21
77685;BME280;66844;46.092;18.268;2023-02-23T00:18:20;99209.38;;;8.19;70.70
77685;BME280;66844;46.092;18.268;2023-02-23T00:18:56;99211.31;;;8.16;70.18
77685;BME280;66844;46.092;18.268;2023-02-23T00:19:31;99220.91;;;8.18;70.27
77685;BME280;66844;46.092;18.268;2023-02-23T00:20:05;99213.97;;;8.16;69.84
77685;BME280;66844;46.092;18.268;2023-02-23T00:20:43;99222.25;;;8.10;70.57
77685;BME280;66844;46.092;18.268;2023-02-23T00:21:23;99220.53;;;8.09;70.00
77685;BME280;66844;46.092;18.268;2023-02-23T00:21:55;99218.03;;;8.06;70.58
77685;BME280;66844;46.092;18.268;2023-02-23T00:22:29;99226.06;;;8.04;70.58
77685;BME280;66844;46.092;18.268;2023-02-23T00:23:01;99216.47;;;8.02;70.39
77685;BME280;66844;46.092;18.268;2023-02-23T00:23:32;99220.75;;;8.04;70.90
77685;BME280;66844;46.092;18.268;2023-02-23T00:24:07;99218.22;;;8.03;70.58
77685;BME280;66844;46.092;18.268;2023-02-23T00:24:39;99223.66;;;8.00;71.08
77685;BME280;66844;46.092;18.268;2023-02-23T00:25:13;99214.88;;;7.99;71.09
77685;BME280;66844;46.092;18.268;2023-02-23T00:25:45;99216.88;;;7.94;70.66
77685;BME280;66844;46.092;18.268;2023-02-23T00:26:18;99217.75;;;7.95;71.11
77685;BME280;66844;46.092;18.268;2023-02-23T00:26:51;99217.97;;;7.90;70.89
77685;BME280;66844;46.092;18.268;2023-02-23T00:27:24;99216.13;;;7.92;71.59
77685;BME280;66844;46.092;18.268;2023-02-23T00:27:56;99212.38;;;7.96;70.99
77685;BME280;66844;46.092;18.268;2023-02-23T00:28:27;99206.28;;;7.94;71.30
77685;BME280;66844;46.092;18.268;2023-02-23T00:29:01;99212.66;;;7.90;70.81
77685;BME280;66844;46.092;18.268;2023-02-23T00:29:33;99223.25;;;7.90;71.39
77685;BME280;66844;46.092;18.268;2023-02-23T00:30:11;99212.59;;;7.92;71.95
77685;BME280;66844;46.092;18.268;2023-02-23T00:30:44;99203.09;;;7.88;72.10
77685;BME280;66844;46.092;18.268;2023-02-23T00:31:17;99207.47;;;7.89;72.20
77685;BME280;66844;46.092;18.268;2023-02-23T00:31:50;99209.09;;;7.91;72.04
77685;BME280;66844;46.092;18.268;2023-02-23T00:32:22;99209.78;;;7.95;71.50
77685;BME280;66844;46.092;18.268;2023-02-23T00:32:54;99217.81;;;7.93;71.71
77685;BME280;66844;46.092;18.268;2023-02-23T00:33:27;99213.38;;;7.94;71.65
77685;BME280;66844;46.092;18.268;2023-02-23T00:34:02;99206.22;;;7.96;71.73
77685;BME280;66844;46.092;18.268;2023-02-23T00:34:34;99215.03;;;7.96;71.58
77685;BME280;66844;46.092;18.268;2023-02-23T00:35:07;99208.78;;;7.97;72.08
77685;BME280;66844;46.092;18.268;2023-02-23T00:35:47;99205.19;;;7.98;71.85
77685;BME280;66844;46.092;18.268;2023-02-23T00:36:21;99214.94;;;7.98;71.72
77685;BME280;66844;46.092;18.268;2023-02-23T00:36:54;99207.91;;;7.97;71.60
77685;BME280;66844;46.092;18.268;2023-02-23T00:37:26;99205.34;;;7.95;71.69
77685;BME280;66844;46.092;18.268;2023-02-23T00:37:57;99202.53;;;7.98;72.29
77685;BME280;66844;46.092;18.268;2023-02-23T00:38:29;99209.63;;;7.98;71.91
77685;BME280;66844;46.092;18.268;2023-02-23T00:39:10;99211.34;;;7.99;71.74
77685;BME280;66844;46.092;18.268;2023-02-23T00:39:49;99203.47;;;7.97;71.55
77685;BME280;66844;46.092;18.268;2023-02-23T00:40:22;99208.69;;;7.99;71.72
77685;BME280;66844;46.092;18.268;2023-02-23T00:40:55;99211.34;;;7.99;71.56
77685;BME280;66844;46.092;18.268;2023-02-23T00:41:27;99206.06;;;7.99;71.85
77685;BME280;66844;46.092;18.268;2023-02-23T00:42:00;99206.97;;;7.98;71.71
77685;BME280;66844;46.092;18.268;2023-02-23T00:42:34;99200.91;;;7.96;71.55
77685;BME280;66844;46.092;18.268;2023-02-23T00:43:06;99207.91;;;7.97;71.98
77685;BME280;66844;46.092;18.268;2023-02-23T00:43:40;99204.50;;;7.95;71.66
77685;BME280;66844;46.092;18.268;2023-02-23T00:44:19;99206.28;;;7.94;71.94
77685;BME280;66844;46.092;18.268;2023-02-23T00:44:52;99211.69;;;7.93;71.63
77685;BME280;66844;46.092;18.268;2023-02-23T00:45:24;99212.50;;;7.93;71.77
77685;BME280;66844;46.092;18.268;2023-02-23T00:45:56;99210.94;;;7.89;71.89
77685;BME280;66844;46.092;18.268;2023-02-23T00:46:29;99221.53;;;7.89;72.34
77685;BME280;66844;46.092;18.268;2023-02-23T00:47:01;99218.06;;;7.89;71.88
77685;BME280;66844;46.092;18.268;2023-02-23T00:47:32;99206.63;;;7.88;72.47
77685;BME280;66844;46.092;18.268;2023-02-23T00:48:06;99208.31;;;7.89;72.43
77685;BME280;66844;46.092;18.268;2023-02-23T00:48:42;99210.03;;;7.90;72.61
77685;BME280;66844;46.092;18.268;2023-02-23T00:49:14;99218.91;;;7.89;71.96
77685;BME280;66844;46.092;18.268;2023-02-23T00:49:47;99215.41;;;7.89;72.10
77685;BME280;66844;46.092;18.268;2023-02-23T00:50:18;99213.69;;;7.88;72.80
77685;BME280;66844;46.092;18.268;2023-02-23T00:50:58;99215.41;;;7.89;72.09
77685;BME280;66844;46.092;18.268;2023-02-23T00:51:30;99212.78;;;7.89;72.31
77685;BME280;66844;46.092;18.268;2023-02-23T00:52:03;99211.81;;;7.90;72.28
77685;BME280;66844;46.092;18.268;2023-02-23T00:52:35;99213.59;;;7.89;72.25
77685;BME280;66844;46.092;18.268;2023-02-23T00:53:07;99210.94;;;7.89;72.23
77685;BME280;66844;46.092;18.268;2023-02-23T00:53:42;99205.81;;;7.86;72.84
77685;BME280;66844;46.092;18.268;2023-02-23T00:54:15;99204.88;;;7.87;72.81
77685;BME280;66844;46.092;18.268;2023-02-23T00:54:47;99215.31;;;7.90;72.91
77685;BME280;66844;46.092;18.268;2023-02-23T00:55:19;99216.25;;;7.89;72.46
77685;BME280;66844;46.092;18.268;2023-02-23T00:55:51;99213.59;;;7.89;72.99
77685;BME280;66844;46.092;18.268;2023-02-23T00:56:23;99211.09;;;7.86;72.86
77685;BME280;66844;46.092;18.268;2023-02-23T00:56:55;99202.31;;;7.86;72.79
77685;BME280;66844;46.092;18.268;2023-02-23T00:57:26;99211.38;;;7.82;73.18
77685;BME280;66844;46.092;18.268;2023-02-23T00:57:58;99213.84;;;7.85;73.09
77685;BME280;66844;46.092;18.268;2023-02-23T00:58:31;99217.28;;;7.87;72.61
77685;BME280;66844;46.092;18.268;2023-02-23T00:59:03;99215.25;;;7.92;72.48
77685;BME280;66844;46.092;18.268;2023-02-23T00:59:35;99214.47;;;7.90;72.53
77685;BME280;66844;46.092;18.268;2023-02-23T01:00:10;99220.63;;;7.90;72.62
77685;BME280;66844;46.092;18.268;2023-02-23T01:00:51;99221.47;;;7.91;72.95
77685;BME280;66844;46.092;18.268;2023-02-23T01:01:25;99222.34;;;7.91;73.06
77685;BME280;66844;46.092;18.268;2023-02-23T01:01:57;99223.19;;;7.92;72.71
77685;BME280;66844;46.092;18.268;2023-02-23T01:02:29;99211.09;;;7.86;72.79
77685;BME280;66844;46.092;18.268;2023-02-23T01:03:01;99218.19;;;7.86;73.10
77685;BME280;66844;46.092;18.268;2023-02-23T01:03:33;99217.19;;;7.88;72.83
77685;BME280;66844;46.092;18.268;2023-02-23T01:04:05;99225.16;;;7.88;73.34
77685;BME280;66844;46.092;18.268;2023-02-23T01:04:37;99218.13;;;7.87;72.69
77685;BME280;66844;46.092;18.268;2023-02-23T01:05:09;99210.25;;;7.86;72.91
77685;BME280;66844;46.092;18.268;2023-02-23T01:05:44;99210.25;;;7.86;72.94
77685;BME280;66844;46.092;18.268;2023-02-23T01:06:20;99211.22;;;7.85;72.42
77685;BME280;66844;46.092;18.268;2023-02-23T01:06:53;99217.50;;;7.82;72.75
77685;BME280;66844;46.092;18.268;2023-02-23T01:07:25;99213.06;;;7.82;72.83
77685;BME280;66844;46.092;18.268;2023-02-23T01:07:57;99201.94;;;7.76;73.13
77685;BME280;66844;46.092;18.268;2023-02-23T01:08:29;99211.44;;;7.80;73.62
77685;BME280;66844;46.092;18.268;2023-02-23T01:09:00;99213.22;;;7.79;73.14
77685;BME280;66844;46.092;18.268;2023-02-23T01:09:36;99209.72;;;7.79;73.58
77685;BME280;66844;46.092;18.268;2023-02-23T01:10:08;99209.00;;;7.75;73.76
77685;BME280;66844;46.092;18.268;2023-02-23T01:10:50;99217.75;;;7.77;73.46
77685;BME280;66844;46.092;18.268;2023-02-23T01:11:27;99209.81;;;7.77;73.17
77685;BME280;66844;46.092;18.268;2023-02-23T01:12:01;99215.94;;;7.78;73.84
77685;BME280;66844;46.092;18.268;2023-02-23T01:12:33;99208.09;;;7.76;73.42
77685;BME280;66844;46.092;18.268;2023-02-23T01:13:05;99213.22;;;7.79;73.83
77685;BME280;66844;46.092;18.268;2023-02-23T01:13:37;99205.34;;;7.78;73.20
77685;BME280;66844;46.092;18.268;2023-02-23T01:14:09;99205.34;;;7.78;73.59
77685;BME280;66844;46.092;18.268;2023-02-23T01:14:41;99211.59;;;7.77;73.93
77685;BME280;66844;46.092;18.268;2023-02-23T01:15:13;99205.44;;;7.76;74.06
77685;BME280;66844;46.092;18.268;2023-02-23T01:15:46;99199.34;;;7.74;73.79
77685;BME280;66844;46.092;18.268;2023-02-23T01:16:21;99204.50;;;7.77;73.88
77685;BME280;66844;46.092;18.268;2023-02-23T01:16:56;99205.44;;;7.76;73.93
77685;BME280;66844;46.092;18.268;2023-02-23T01:17:28;99212.47;;;7.77;74.18
77685;BME280;66844;46.092;18.268;2023-02-23T01:18:01;99202.94;;;7.73;73.95
77685;BME280;66844;46.092;18.268;2023-02-23T01:18:33;99197.78;;;7.70;73.59
77685;BME280;66844;46.092;18.268;2023-02-23T01:19:06;99198.59;;;7.72;73.61
77685;BME280;66844;46.092;18.268;2023-02-23T01:19:38;99201.28;;;7.71;74.39
77685;BME280;66844;46.092;18.268;2023-02-23T01:20:15;99203.09;;;7.70;73.55
77685;BME280;66844;46.092;18.268;2023-02-23T01:20:50;99200.44;;;7.70;74.17
77685;BME280;66844;46.092;18.268;2023-02-23T01:21:27;99201.22;;;7.72;73.46
77685;BME280;66844;46.092;18.268;2023-02-23T01:22:00;99201.22;;;7.72;74.07
77685;BME280;66844;46.092;18.268;2023-02-23T01:22:32;99207.06;;;7.79;73.95
77685;BME280;66844;46.092;18.268;2023-02-23T01:23:04;99203.66;;;7.77;73.91
77685;BME280;66844;46.092;18.268;2023-02-23T01:23:38;99201.06;;;7.75;74.46
77685;BME280;66844;46.092;18.268;2023-02-23T01:24:10;99201.06;;;7.75;73.88
77685;BME280;66844;46.092;18.268;2023-02-23T01:24:42;99197.66;;;7.73;74.28
77685;BME280;66844;46.092;18.268;2023-02-23T01:25:15;99199.34;;;7.74;74.13
77685;BME280;66844;46.092;18.268;2023-02-23T01:25:48;99205.44;;;7.76;73.76
77685;BME280;66844;46.092;18.268;2023-02-23T01:26:23;99203.72;;;7.75;74.18
77685;BME280;66844;46.092;18.268;2023-02-23T01:26:55;99198.53;;;7.74;74.39
77685;BME280;66844;46.092;18.268;2023-02-23T01:27:27;99201.16;;;7.74;73.60
77685;BME280;66844;46.092;18.268;2023-02-23T01:28:00;99197.66;;;7.73;74.14
77685;BME280;66844;46.092;18.268;2023-02-23T01:28:32;99197.88;;;7.69;74.71
77685;BME280;66844;46.092;18.268;2023-02-23T01:29:29;99200.31;;;7.73;74.00
77685;BME280;66844;46.092;18.268;2023-02-23T01:30:01;99198.53;;;7.74;74.11
77685;BME280;66844;46.092;18.268;2023-02-23T01:30:33;99197.66;;;7.73;73.94
77685;BME280;66844;46.092;18.268;2023-02-23T01:31:08;99200.31;;;7.73;74.08
77685;BME280;66844;46.092;18.268;2023-02-23T01:31:43;99195.94;;;7.72;74.24
77685;BME280;66844;46.092;18.268;2023-02-23T01:32:16;99193.34;;;7.71;74.29
77685;BME280;66844;46.092;18.268;2023-02-23T01:32:48;99198.75;;;7.69;74.74
77685;BME280;66844;46.092;18.268;2023-02-23T01:33:20;99192.59;;;7.69;74.20
77685;BME280;66844;46.092;18.268;2023-02-23T01:33:56;99194.38;;;7.68;74.63
77685;BME280;66844;46.092;18.268;2023-02-23T01:34:28;99198.81;;;7.68;74.25
77685;BME280;66844;46.092;18.268;2023-02-23T01:35:00;99201.47;;;7.68;74.52
77685;BME280;66844;46.092;18.268;2023-02-23T01:35:32;99201.56;;;7.66;74.43
77685;BME280;66844;46.092;18.268;2023-02-23T01:36:04;99194.44;;;7.67;74.25
77685;BME280;66844;46.092;18.268;2023-02-23T01:36:38;99204.09;;;7.68;74.98
77685;BME280;66844;46.092;18.268;2023-02-23T01:37:10;99196.25;;;7.66;75.02
77685;BME280;66844;46.092;18.268;2023-02-23T01:37:42;99191.88;;;7.65;74.62
77685;BME280;66844;46.092;18.268;2023-02-23T01:38:14;99188.59;;;7.60;74.44
77685;BME280;66844;46.092;18.268;2023-02-23T01:38:46;99191.94;;;7.64;75.13
77685;BME280;66844;46.092;18.268;2023-02-23T01:39:20;99190.09;;;7.66;74.79
77685;BME280;66844;46.092;18.268;2023-02-23T01:39:52;99199.72;;;7.67;75.42
77685;BME280;66844;46.092;18.268;2023-02-23T01:40:25;99178.88;;;7.61;75.13
77685;BME280;66844;46.092;18.268;2023-02-23T01:41:00;99191.88;;;7.65;74.52
77685;BME280;66844;46.092;18.268;2023-02-23T01:41:34;99189.25;;;7.65;74.35
77685;BME280;66844;46.092;18.268;2023-02-23T01:42:13;99198.91;;;7.66;75.42
77685;BME280;66844;46.092;18.268;2023-02-23T01:42:45;99185.91;;;7.62;75.47
77685;BME280;66844;46.092;18.268;2023-02-23T01:43:19;99187.53;;;7.64;75.10
77685;BME280;66844;46.092;18.268;2023-02-23T01:45:28;99180.50;;;7.63;74.57
77685;BME280;66844;46.092;18.268;2023-02-23T01:46:00;99190.31;;;7.61;75.23
77685;BME280;66844;46.092;18.268;2023-02-23T01:46:35;99190.38;;;7.60;75.05
77685;BME280;66844;46.092;18.268;2023-02-23T01:47:07;99184.50;;;7.55;75.43
77685;BME280;66844;46.092;18.268;2023-02-23T01:47:39;99190.72;;;7.54;75.02
77685;BME280;66844;46.092;18.268;2023-02-23T01:48:27;99189.00;;;7.53;75.52
77685;BME280;66844;46.092;18.268;2023-02-23T01:49:03;99182.94;;;7.51;75.25
77685;BME280;66844;46.092;18.268;2023-02-23T01:49:37;99194.28;;;7.53;75.79
77685;BME280;66844;46.092;18.268;2023-02-23T01:50:10;99191.56;;;7.54;75.89
77685;BME280;66844;46.092;18.268;2023-02-23T01:51:45;99178.34;;;7.54;75.81
77685;BME280;66844;46.092;18.268;2023-02-23T01:52:19;99181.47;;;7.62;75.49
77685;BME280;66844;46.092;18.268;2023-02-23T01:52:51;99190.31;;;7.61;75.23
77685;BME280;66844;46.092;18.268;2023-02-23T01:53:25;99190.56;;;7.57;75.15
77685;BME280;66844;46.092;18.268;2023-02-23T01:54:12;99191.25;;;7.60;75.74
77685;BME280;66844;46.092;18.268;2023-02-23T01:54:52;99186.97;;;7.58;75.84
77685;BME280;66844;46.092;18.268;2023-02-23T01:55:26;99188.00;;;7.55;75.20
77685;BME280;66844;46.092;18.268;2023-02-23T01:56:04;99186.19;;;7.56;75.48
77685;BME280;66844;46.092;18.268;2023-02-23T01:56:45;99184.50;;;7.55;75.65
77685;BME280;66844;46.092;18.268;2023-02-23T01:57:28;99190.56;;;7.57;75.54
77685;BME280;66844;46.092;18.268;2023-02-23T01:58:07;99186.19;;;7.56;76.27
77685;BME280;66844;46.092;18.268;2023-02-23T01:58:48;99181.91;;;7.53;76.49
77685;BME280;66844;46.092;18.268;2023-02-23T01:59:52;99188.28;;;7.49;75.59
77685;BME280;66844;46.092;18.268;2023-02-23T02:00:25;99183.91;;;7.48;75.63
77685;BME280;66844;46.092;18.268;2023-02-23T02:00:58;99182.13;;;7.49;76.31
77685;BME280;66844;46.092;18.268;2023-02-23T02:01:33;99192.72;;;7.49;75.52
77685;BME280;66844;46.092;18.268;2023-02-23T02:02:05;99177.78;;;7.48;75.47
77685;BME280;66844;46.092;18.268;2023-02-23T02:02:38;99178.88;;;7.44;76.47
77685;BME280;66844;46.092;18.268;2023-02-23T02:03:16;99188.50;;;7.45;75.62
77685;BME280;66844;46.092;18.268;2023-02-23T02:04:22;99192.88;;;7.46;76.36
77685;BME280;66844;46.092;18.268;2023-02-23T02:04:55;99184.06;;;7.45;76.29
77685;BME280;66844;46.092;18.268;2023-02-23T02:05:28;99179.75;;;7.44;76.11
77685;BME280;66844;46.092;18.268;2023-02-23T02:06:02;99177.16;;;7.43;75.85
77685;BME280;66844;46.092;18.268;2023-02-23T02:06:37;99174.56;;;7.41;75.83
77685;BME280;66844;46.092;18.268;2023-02-23T02:07:16;99171.09;;;7.41;76.04
77685;BME280;66844;46.092;18.268;2023-02-23T02:07:50;99175.53;;;7.40;75.84
77685;BME280;66844;46.092;18.268;2023-02-23T02:08:31;99172.03;;;7.40;76.01
77685;BME280;66844;46.092;18.268;2023-02-23T02:09:08;99177.09;;;7.44;76.38
77685;BME280;66844;46.092;18.268;2023-02-23T02:09:46;99178.19;;;7.40;76.46
77685;BME280;66844;46.092;18.268;2023-02-23T02:10:38;99181.59;;;7.42;76.18
77685;BME280;66844;46.092;18.268;2023-02-23T02:11:15;99184.47;;;7.38;75.78
77685;BME280;66844;46.092;18.268;2023-02-23T02:12:11;99180.88;;;7.39;76.12
77685;BME280;66844;46.092;18.268;2023-02-23T02:12:54;99179.25;;;7.36;76.88
77685;BME280;66844;46.092;18.268;2023-02-23T02:13:29;99175.81;;;7.34;76.80
77685;BME280;66844;46.092;18.268;2023-02-23T02:14:08;99177.59;;;7.33;76.67
77685;BME280;66844;46.092;18.268;2023-02-23T02:14:43;99181.91;;;7.36;76.88
77685;BME280;66844;46.092;18.268;2023-02-23T02:15:16;99168.84;;;7.33;76.54
77685;BME280;66844;46.092;18.268;2023-02-23T02:18:42;99174.34;;;7.46;76.90
77685;BME280;66844;46.092;18.268;2023-02-23T02:25:42;99180.03;;;7.38;76.59
77685;BME280;66844;46.092;18.268;2023-02-23T02:27:37;99170.13;;;7.24;77.28
77685;BME280;66844;46.092;18.268;2023-02-23T02:32:38;99174.66;;;7.40;77.11
77685;BME280;66844;46.092;18.268;2023-02-23T02:34:34;99175.03;;;7.32;76.54
77685;BME280;66844;46.092;18.268;2023-02-23T02:38:02;99177.69;;;7.32;76.92
77685;BME280;66844;46.092;18.268;2023-02-23T02:41:06;99181.25;;;7.31;77.12
77685;BME280;66844;46.092;18.268;2023-02-23T02:41:46;99175.91;;;7.32;77.40
77685;BME280;66844;46.092;18.268;2023-02-23T02:42:54;99179.63;;;7.28;76.95
77685;BME280;66844;46.092;18.268;2023-02-23T02:43:41;99171.69;;;7.28;76.75
77685;BME280;66844;46.092;18.268;2023-02-23T02:44:25;99174.34;;;7.28;77.57
77685;BME280;66844;46.092;18.268;2023-02-23T02:45:12;99178.63;;;7.31;77.21
77685;BME280;66844;46.092;18.268;2023-02-23T02:46:34;99176.91;;;7.30;76.95
77685;BME280;66844;46.092;18.268;2023-02-23T02:47:12;99177.84;;;7.29;77.56
77685;BME280;66844;46.092;18.268;2023-02-23T02:48:26;99173.31;;;7.31;77.72
77685;BME280;66844;46.092;18.268;2023-02-23T02:52:25;99174.41;;;7.27;78.21
77685;BME280;66844;46.092;18.268;2023-02-23T02:53:04;99178.06;;;7.24;77.55
77685;BME280;66844;46.092;18.268;2023-02-23T02:53:50;99177.97;;;7.26;78.62
77685;BME280;66844;46.092;18.268;2023-02-23T02:54:48;99173.53;;;7.26;77.99
77685;BME280;66844;46.092;18.268;2023-02-23T02:55:29;99182.28;;;7.28;78.04
77685;BME280;66844;46.092;18.268;2023-02-23T02:56:09;99183.97;;;7.29;77.68
77685;BME280;66844;46.092;18.268;2023-02-23T02:56:43;99176.91;;;7.30;77.68
77685;BME280;66844;46.092;18.268;2023-02-23T02:57:21;99176.19;;;7.26;78.25
77685;BME280;66844;46.092;18.268;2023-02-23T02:57:56;99177.97;;;7.26;77.89
77685;BME280;66844;46.092;18.268;2023-02-23T02:58:29;99172.69;;;7.26;78.55
77685;BME280;66844;46.092;18.268;2023-02-23T02:59:02;99188.56;;;7.26;78.18
77685;BME280;66844;46.092;18.268;2023-02-23T02:59:45;99175.59;;;7.21;78.19
77685;BME280;66844;46.092;18.268;2023-02-23T03:00:46;99177.22;;;7.24;78.18
77685;BME280;66844;46.092;18.268;2023-02-23T03:01:37;99186.06;;;7.23;77.85
77685;BME280;66844;46.092;18.268;2023-02-23T03:02:28;99177.44;;;7.19;78.32
77685;BME280;66844;46.092;18.268;2023-02-23T03:03:37;99182.72;;;7.19;78.65
77685;BME280;66844;46.092;18.268;2023-02-23T03:04:28;99181.09;;;7.17;78.72
77685;BME280;66844;46.092;18.268;2023-02-23T03:05:23;99188.16;;;7.16;78.91
77685;BME280;66844;46.092;18.268;2023-02-23T03:06:15;99188.16;;;7.16;78.34
77685;BME280;66844;46.092;18.268;2023-02-23T03:07:20;99191.81;;;7.14;78.36
77685;BME280;66844;46.092;18.268;2023-02-23T03:09:43;99191.81;;;7.14;79.13
77685;BME280;66844;46.092;18.268;2023-02-23T03:10:45;99180.38;;;7.13;78.89
77685;BME280;66844;46.092;18.268;2023-02-23T03:11:40;99188.31;;;7.13;78.99
77685;BME280;66844;46.092;18.268;2023-02-23T03:17:35;99185.72;;;7.12;79.62
77685;BME280;66844;46.092;18.268;2023-02-23T03:20:23;99181.25;;;7.14;79.18
77685;BME280;66844;46.092;18.268;2023-02-23T03:21:15;99187.47;;;7.13;79.19
77685;BME280;66844;46.092;18.268;2023-02-23T03:23:33;99186.69;;;7.11;79.10
77685;BME280;66844;46.092;18.268;2023-02-23T03:24:40;99185.88;;;7.09;79.59
77685;BME280;66844;46.092;18.268;2023-02-23T03:26:43;99177.25;;;7.05;79.80
77685;BME280;66844;46.092;18.268;2023-02-23T03:27:54;99184.09;;;7.09;79.90
77685;BME280;66844;46.092;18.268;2023-02-23T03:29:11;99189.25;;;7.12;79.42
77685;BME280;66844;46.092;18.268;2023-02-23T03:30:23;99185.25;;;7.04;80.02
77685;BME280;66844;46.092;18.268;2023-02-23T03:33:45;99191.25;;;7.07;79.81
77685;BME280;66844;46.092;18.268;2023-02-23T03:35:01;99188.59;;;7.07;79.98
77685;BME280;66844;46.092;18.268;2023-02-23T03:36:13;99185.81;;;7.10;80.48
77685;BME280;66844;46.092;18.268;2023-02-23T03:37:17;99187.31;;;7.16;80.38
77685;BME280;66844;46.092;18.268;2023-02-23T03:39:39;99186.69;;;7.11;79.88
77685;BME280;66844;46.092;18.268;2023-02-23T03:40:36;99187.78;;;7.07;80.36
77685;BME280;66844;46.092;18.268;2023-02-23T03:41:30;99187.78;;;7.07;79.87
77685;BME280;66844;46.092;18.268;2023-02-23T03:42:28;99192.09;;;7.08;79.97
77685;BME280;66844;46.092;18.268;2023-02-23T03:43:38;99199.91;;;7.11;79.57
77685;BME280;66844;46.092;18.268;2023-02-23T03:44:38;99187.97;;;7.02;79.58
77685;BME280;66844;46.092;18.268;2023-02-23T03:45:31;99192.09;;;7.08;79.63
77685;BME280;66844;46.092;18.268;2023-02-23T03:46:24;99189.59;;;7.05;79.72
77685;BME280;66844;46.092;18.268;2023-02-23T03:47:20;99183.47;;;7.04;80.19
77685;BME280;66844;46.092;18.268;2023-02-23T03:48:14;99192.97;;;7.08;79.85
77685;BME280;66844;46.092;18.268;2023-02-23T03:49:09;99189.47;;;7.08;79.61
77685;BME280;66844;46.092;18.268;2023-02-23T03:50:05;99191.41;;;7.04;80.28
77685;BME280;66844;46.092;18.268;2023-02-23T03:51:04;99197.38;;;7.08;79.51
77685;BME280;66844;46.092;18.268;2023-02-23T03:52:12;99191.25;;;7.07;80.31
77685;BME280;66844;46.092;18.268;2023-02-23T03:53:06;99188.91;;;7.01;80.01
77685;BME280;66844;46.092;18.268;2023-02-23T03:54:10;99192.25;;;7.05;80.27
77685;BME280;66844;46.092;18.268;2023-02-23T03:55:08;99190.53;;;7.04;80.07
77685;BME280;66844;46.092;18.268;2023-02-23T03:56:00;99196.63;;;7.06;80.60
77685;BME280;66844;46.092;18.268;2023-02-23T03:56:55;99193.44;;;6.99;80.46
77685;BME280;66844;46.092;18.268;2023-02-23T03:57:52;99192.41;;;7.02;79.96
77685;BME280;66844;46.092;18.268;2023-02-23T03:58:54;99187.06;;;7.03;80.11
77685;BME280;66844;46.092;18.268;2023-02-23T03:59:52;99190.53;;;7.04;79.71
77685;BME280;66844;46.092;18.268;2023-02-23T04:00:46;99185.50;;;6.99;79.99
77685;BME280;66844;46.092;18.268;2023-02-23T04:01:38;99195.81;;;7.04;79.81
77685;BME280;66844;46.092;18.268;2023-02-23T04:02:32;99189.59;;;7.05;80.13
77685;BME280;66844;46.092;18.268;2023-02-23T04:03:26;99195.97;;;7.01;79.15
77685;BME280;66844;46.092;18.268;2023-02-23T04:04:18;99192.94;;;6.91;80.20
77685;BME280;66844;46.092;18.268;2023-02-23T04:05:16;99198.72;;;6.99;79.95
77685;BME280;66844;46.092;18.268;2023-02-23T04:06:11;99196.84;;;7.01;79.56
77685;BME280;66844;46.092;18.268;2023-02-23T04:07:06;99186.41;;;6.98;80.11
77685;BME280;66844;46.092;18.268;2023-02-23T04:08:03;99192.41;;;7.02;79.36
77685;BME280;66844;46.092;18.268;2023-02-23T04:09:00;99199.28;;;7.06;79.65
77685;BME280;66844;46.092;18.268;2023-02-23T04:09:51;99197.75;;;7.00;79.53
77685;BME280;66844;46.092;18.268;2023-02-23T04:10:49;99188.75;;;7.04;79.26
77685;BME280;66844;46.092;18.268;2023-02-23T04:11:50;99195.69;;;7.07;79.78
77685;BME280;66844;46.092;18.268;2023-02-23T04:13:05;99201.81;;;7.07;79.06